Time;durP1;ratioP1;P1;durP2;ratioP2;P2;SDS_P1;SDS_P2;PMS_P1;PMS_P2;Temp;Humidity;BMP_temperature;BMP_pressure;BME280_temperature;BME280_humidity;BME280_pressure;Samples;Min_cycle;Max_cycle;Signal;HPM_P1;HPM_P2
2022/07/26 00:00:32;;;;;;;0.00;0.00;;;25.30;64.00;;;;;;4176046;28;20545;-70
2022/07/26 00:02:55;;;;;;;0.00;0.00;;;25.30;64.10;;;;;;4175970;28;20183;-71
2022/07/26 00:05:17;;;;;;;0.00;0.00;;;25.30;64.10;;;;;;4173585;28;20056;-69
2022/07/26 00:07:40;;;;;;;0.03;0.03;;;25.30;64.20;;;;;;4176814;28;20060;-70
2022/07/26 00:10:02;;;;;;;0.00;0.00;;;25.30;64.30;;;;;;4176212;28;20194;-69
2022/07/26 00:12:26;;;;;;;0.05;0.05;;;25.30;64.30;;;;;;4193220;28;20088;-69
2022/07/26 00:14:49;;;;;;;0.00;0.00;;;25.30;64.30;;;;;;4192622;28;20402;-70
2022/07/26 00:17:11;;;;;;;0.00;0.00;;;25.30;64.40;;;;;;4193073;28;20044;-71
2022/07/26 00:19:33;;;;;;;0.00;0.00;;;25.20;64.30;;;;;;4192708;28;20127;-71
2022/07/26 00:24:31;;;;;;;0.00;0.00;;;25.20;64.30;;;;;;4174622;28;20041;-70
2022/07/26 00:26:56;;;;;;;0.00;0.00;;;25.30;64.30;;;;;;4188771;28;20094;-70
2022/07/26 00:29:19;;;;;;;0.00;0.00;;;25.20;64.30;;;;;;4190760;28;20060;-69
2022/07/26 00:31:41;;;;;;;0.45;0.38;;;25.20;64.40;;;;;;4191732;28;20076;-68
2022/07/26 00:34:04;;;;;;;2.50;1.08;;;25.20;64.40;;;;;;4189192;28;20052;-71
2022/07/26 00:36:27;;;;;;;0.00;0.00;;;25.20;64.60;;;;;;4175128;28;20563;-70
2022/07/26 00:38:49;;;;;;;0.05;0.05;;;25.20;64.50;;;;;;4177018;28;20566;-71
2022/07/26 00:41:11;;;;;;;8.82;1.52;;;25.20;64.50;;;;;;4190377;28;20064;-70
2022/07/26 00:43:33;;;;;;;13.45;1.00;;;25.20;64.60;;;;;;4189434;28;20058;-72
2022/07/26 00:45:57;;;;;;;0.00;0.00;;;25.20;64.60;;;;;;4191089;28;20118;-71
2022/07/26 00:48:19;;;;;;;0.20;0.20;;;25.20;64.60;;;;;;4175364;28;20562;-70
2022/07/26 00:50:42;;;;;;;0.00;0.00;;;25.20;64.70;;;;;;4175202;28;20060;-69
2022/07/26 00:53:04;;;;;;;0.00;0.00;;;25.20;64.80;;;;;;4175554;28;20055;-71
2022/07/26 00:55:26;;;;;;;0.00;0.00;;;25.20;64.80;;;;;;4188245;28;20040;-70
2022/07/26 00:57:48;;;;;;;0.00;0.00;;;25.20;64.80;;;;;;4190622;28;20080;-62
2022/07/26 01:00:13;;;;;;;0.55;0.35;;;25.20;64.90;;;;;;4192053;28;20399;-63
2022/07/26 01:02:37;;;;;;;0.00;0.00;;;25.20;65.00;;;;;;4190782;28;20054;-62
2022/07/26 01:04:59;;;;;;;2.10;1.45;;;25.20;64.90;;;;;;4180403;28;20055;-63
2022/07/26 01:07:22;;;;;;;0.00;0.00;;;25.20;65.00;;;;;;4188952;28;20071;-63
2022/07/26 01:09:45;;;;;;;1.08;0.75;;;25.20;65.10;;;;;;4191603;28;20044;-63
2022/07/26 01:12:08;;;;;;;0.10;0.10;;;25.20;65.10;;;;;;4190158;28;20044;-63
2022/07/26 01:14:30;;;;;;;0.55;0.55;;;25.20;65.10;;;;;;4191200;28;20068;-63
2022/07/26 01:16:52;;;;;;;0.00;0.00;;;25.20;65.20;;;;;;4190420;28;20048;-63
2022/07/26 01:19:16;;;;;;;0.00;0.00;;;25.10;65.10;;;;;;4175235;28;20068;-62
2022/07/26 01:21:39;;;;;;;0.00;0.00;;;25.10;65.10;;;;;;4191727;28;20052;-62
2022/07/26 01:24:02;;;;;;;0.00;0.00;;;25.20;65.20;;;;;;4191087;28;20048;-62
2022/07/26 01:26:24;;;;;;;0.00;0.00;;;25.20;65.30;;;;;;4191794;28;20486;-62
2022/07/26 01:28:48;;;;;;;0.00;0.00;;;25.10;65.30;;;;;;4191467;28;20507;-63
2022/07/26 01:31:10;;;;;;;0.00;0.00;;;25.10;66.30;;;;;;4178572;28;20048;-62
2022/07/26 01:33:33;;;;;;;0.00;0.00;;;25.10;65.30;;;;;;4190388;28;20127;-62
2022/07/26 01:35:55;;;;;;;0.00;0.00;;;25.10;65.40;;;;;;4191939;28;20476;-62
2022/07/26 01:38:19;;;;;;;0.00;0.00;;;25.10;65.40;;;;;;4191760;28;20048;-62
2022/07/26 01:40:41;;;;;;;0.00;0.00;;;25.10;65.40;;;;;;4186269;28;20465;-62
2022/07/26 01:43:03;;;;;;;0.00;0.00;;;25.10;65.50;;;;;;4190349;28;20060;-62
2022/07/26 01:45:25;;;;;;;0.10;0.10;;;25.10;65.50;;;;;;4190591;28;20365;-62
2022/07/26 01:47:49;;;;;;;0.30;0.30;;;25.10;66.40;;;;;;4175035;28;20904;-63
2022/07/26 01:50:11;;;;;;;0.38;0.38;;;25.10;65.60;;;;;;4191606;28;20054;-62
2022/07/26 01:52:34;;;;;;;0.00;0.00;;;25.10;65.60;;;;;;4191559;28;20064;-62
2022/07/26 01:54:57;;;;;;;0.20;0.20;;;25.10;65.70;;;;;;4191909;28;20055;-62
2022/07/26 01:57:23;;;;;;;0.00;0.00;;;25.10;65.70;;;;;;4188529;28;20534;-62
2022/07/26 01:59:45;;;;;;;1.02;0.75;;;25.10;65.70;;;;;;4178970;28;20446;-62
2022/07/26 02:02:07;;;;;;;0.00;0.00;;;25.10;65.70;;;;;;4175306;28;20049;-63
2022/07/26 02:07:09;;;;;;;0.00;0.00;;;25.10;65.80;;;;;;4194704;28;20079;-62
2022/07/26 02:09:34;;;;;;;0.00;0.00;;;25.10;65.80;;;;;;4194585;28;20060;-63
2022/07/26 02:12:01;;;;;;;0.00;0.00;;;25.10;65.90;;;;;;4193947;28;20053;-62
2022/07/26 02:14:23;;;;;;;0.25;0.25;;;25.00;65.80;;;;;;4194279;28;20044;-63
2022/07/26 02:16:47;;;;;;;0.00;0.00;;;25.00;65.80;;;;;;4194184;28;20102;-62
2022/07/26 02:19:09;;;;;;;0.10;0.10;;;25.00;65.80;;;;;;4192746;28;20138;-62
2022/07/26 02:21:32;;;;;;;0.00;0.00;;;25.00;66.70;;;;;;4194342;28;20076;-62
2022/07/26 02:23:54;;;;;;;0.00;0.00;;;25.10;65.90;;;;;;4193809;28;20048;-63
2022/07/26 02:26:16;;;;;;;0.00;0.00;;;25.00;65.90;;;;;;4194164;28;20048;-62
2022/07/26 02:28:40;;;;;;;0.00;0.00;;;25.00;66.80;;;;;;4194415;28;20044;-61
2022/07/26 02:31:02;;;;;;;0.00;0.00;;;25.00;66.00;;;;;;4178877;28;20069;-62
2022/07/26 02:33:25;;;;;;;0.00;0.00;;;25.00;65.90;;;;;;4177359;28;20141;-62
2022/07/26 02:35:47;;;;;;;0.00;0.00;;;25.00;66.00;;;;;;4186828;28;20048;-61
2022/07/26 02:38:10;;;;;;;0.00;0.00;;;25.00;66.00;;;;;;4194247;28;20135;-62
2022/07/26 02:40:34;;;;;;;0.00;0.00;;;25.00;66.00;;;;;;4194607;28;20048;-61
2022/07/26 02:42:56;;;;;;;0.00;0.00;;;25.00;66.00;;;;;;4193979;28;20053;-61
2022/07/26 02:45:19;;;;;;;0.00;0.00;;;25.00;66.10;;;;;;4194149;28;20132;-62
2022/07/26 02:47:48;;;;;;;0.00;0.00;;;25.00;66.00;;;;;;4193793;28;20509;-62
2022/07/26 02:50:11;;;;;;;0.00;0.00;;;25.00;66.00;;;;;;4181106;28;20140;-62
2022/07/26 02:52:33;;;;;;;2.20;0.85;;;25.00;66.90;;;;;;4192911;28;20048;-61
2022/07/26 02:54:56;;;;;;;0.10;0.10;;;25.00;66.10;;;;;;4193304;28;20730;-61
2022/07/26 02:57:19;;;;;;;0.00;0.00;;;25.00;66.30;;;;;;4192710;28;20048;-61
2022/07/26 02:59:40;;;;;;;0.00;0.00;;;25.00;66.30;;;;;;4194078;28;20545;-62
2022/07/26 03:02:04;;;;;;;0.00;0.00;;;25.00;66.30;;;;;;4193920;28;20041;-61
2022/07/26 03:04:26;;;;;;;0.15;0.15;;;25.00;66.40;;;;;;4193967;28;25010;-61
2022/07/26 03:06:48;;;;;;;0.00;0.00;;;25.00;66.40;;;;;;4193599;28;20055;-62
2022/07/26 03:09:10;;;;;;;1.45;0.65;;;24.90;66.50;;;;;;4193706;28;20047;-62
2022/07/26 03:11:32;;;;;;;0.00;0.00;;;25.00;66.60;;;;;;4193483;28;20403;-62
2022/07/26 03:13:54;;;;;;;0.00;0.00;;;24.90;66.50;;;;;;4193390;28;20234;-62
2022/07/26 03:16:16;;;;;;;0.00;0.00;;;24.90;66.60;;;;;;4193425;28;20060;-62
2022/07/26 03:18:42;;;;;;;40.30;1.33;;;24.90;66.60;;;;;;4176354;28;20083;-62
2022/07/26 03:21:04;;;;;;;0.00;0.00;;;24.90;66.50;;;;;;4177017;28;20092;-62
2022/07/26 03:23:26;;;;;;;0.00;0.00;;;24.90;66.50;;;;;;4177005;28;20057;-62
2022/07/26 03:25:48;;;;;;;0.00;0.00;;;24.90;66.60;;;;;;4176426;28;20056;-63
2022/07/26 03:28:10;;;;;;;0.00;0.00;;;24.90;66.70;;;;;;4176910;28;20044;-62
2022/07/26 03:30:37;;;;;;;0.00;0.00;;;24.90;66.80;;;;;;4175676;28;20514;-61
2022/07/26 03:32:59;;;;;;;0.00;0.00;;;24.90;66.80;;;;;;4192220;28;20246;-61
2022/07/26 03:35:23;;;;;;;0.00;0.00;;;24.90;66.80;;;;;;4193093;28;20105;-62
2022/07/26 03:37:45;;;;;;;0.00;0.00;;;24.90;66.80;;;;;;4193298;28;20465;-61
2022/07/26 03:40:08;;;;;;;0.25;0.25;;;24.90;66.90;;;;;;4193215;28;20052;-61
2022/07/26 03:42:31;;;;;;;0.10;0.10;;;24.90;66.90;;;;;;4193402;28;20123;-61
2022/07/26 03:44:53;;;;;;;0.35;0.35;;;24.90;66.90;;;;;;4193159;28;20107;-61
2022/07/26 03:47:15;;;;;;;0.20;0.20;;;24.80;66.80;;;;;;4176727;28;20045;-61
2022/07/26 03:49:37;;;;;;;0.00;0.00;;;24.90;66.90;;;;;;4176500;28;20052;-62
2022/07/26 03:52:01;;;;;;;0.28;0.28;;;24.80;66.90;;;;;;4176566;28;20435;-61
2022/07/26 03:54:23;;;;;;;0.00;0.00;;;24.80;66.90;;;;;;4176688;28;20146;-61
2022/07/26 03:56:43;;;;;;;0.00;0.00;;;24.80;66.90;;;;;;4176307;28;20114;-61
2022/07/26 03:59:07;;;;;;;0.00;0.00;;;24.80;66.90;;;;;;4178961;28;20125;-61
2022/07/26 04:01:29;;;;;;;0.08;0.08;;;24.80;66.90;;;;;;4193135;28;20574;-61
2022/07/26 04:03:52;;;;;;;0.00;0.00;;;24.80;67.10;;;;;;4192120;28;20048;-62
2022/07/26 04:06:14;;;;;;;0.00;0.00;;;24.80;67.10;;;;;;4193049;28;20485;-60
2022/07/26 04:08:38;;;;;;;1.50;0.93;;;24.80;67.10;;;;;;4192881;28;20780;-62
2022/07/26 04:11:00;;;;;;;0.00;0.00;;;24.80;67.10;;;;;;4176263;28;20081;-61
2022/07/26 04:13:23;;;;;;;0.00;0.00;;;24.80;67.00;;;;;;4177259;28;20051;-62
2022/07/26 04:15:45;;;;;;;0.00;0.00;;;24.80;67.10;;;;;;4176416;28;20049;-61
2022/07/26 04:18:07;;;;;;;0.43;0.43;;;24.80;67.20;;;;;;4175475;28;20049;-61
2022/07/26 04:20:29;;;;;;;0.00;0.00;;;24.80;67.10;;;;;;4176379;28;20122;-60
2022/07/26 04:22:51;;;;;;;0.00;0.00;;;24.80;67.20;;;;;;4176042;28;20092;-61
2022/07/26 04:25:15;;;;;;;0.00;0.00;;;24.80;67.20;;;;;;4191396;28;21835;-60
2022/07/26 04:27:37;;;;;;;0.00;0.00;;;24.80;67.20;;;;;;4192108;28;20375;-61
2022/07/26 04:29:59;;;;;;;0.00;0.00;;;24.80;67.20;;;;;;4175648;28;20040;-61
2022/07/26 04:32:22;;;;;;;0.00;0.00;;;24.80;67.20;;;;;;4175944;28;20488;-62
2022/07/26 04:34:44;;;;;;;0.63;0.63;;;24.70;67.30;;;;;;4176130;28;20519;-61
2022/07/26 04:37:06;;;;;;;0.10;0.10;;;24.70;67.30;;;;;;4175812;28;20056;-62
2022/07/26 04:39:28;;;;;;;0.00;0.00;;;24.80;67.30;;;;;;4175938;28;20052;-61
2022/07/26 04:41:51;;;;;;;0.10;0.10;;;24.70;67.30;;;;;;4188938;28;20051;-63
2022/07/26 04:44:14;;;;;;;0.00;0.00;;;24.70;67.40;;;;;;4177938;28;20133;-61
2022/07/26 04:46:36;;;;;;;0.00;0.00;;;24.80;67.30;;;;;;4173949;28;20045;-61
2022/07/26 04:48:58;;;;;;;0.00;0.00;;;24.70;67.20;;;;;;4190680;28;20041;-61
2022/07/26 04:51:21;;;;;;;0.00;0.00;;;24.80;67.50;;;;;;4175546;28;20415;-62
2022/07/26 04:53:43;;;;;;;0.00;0.00;;;24.70;67.60;;;;;;4190878;28;20087;-62
2022/07/26 04:56:05;;;;;;;0.00;0.00;;;24.80;67.10;;;;;;4191479;28;20106;-62
2022/07/26 04:58:29;;;;;;;0.03;0.03;;;24.70;67.10;;;;;;4187383;28;20055;-62
2022/07/26 05:00:51;;;;;;;0.00;0.00;;;24.70;67.10;;;;;;4183093;28;20056;-62
2022/07/26 05:03:33;;;;;;;0.00;0.00;;;24.70;67.20;;;;;;4186264;28;20564;-61
2022/07/26 05:05:55;;;;;;;0.00;0.00;;;24.70;67.20;;;;;;4175392;28;20064;-62
2022/07/26 05:08:17;;;;;;;0.05;0.05;;;24.70;67.30;;;;;;4182684;28;20067;-62
2022/07/26 05:10:40;;;;;;;0.90;0.90;;;24.70;67.30;;;;;;4190515;28;20052;-63
2022/07/26 05:13:04;;;;;;;0.00;0.00;;;24.70;67.30;;;;;;4192198;28;20540;-61
2022/07/26 05:15:27;;;;;;;0.10;0.10;;;24.70;67.30;;;;;;4191063;28;20094;-62
2022/07/26 05:17:55;;;;;;;0.00;0.00;;;24.70;67.30;;;;;;4191328;28;20045;-61
2022/07/26 05:20:17;;;;;;;0.00;0.00;;;24.70;67.30;;;;;;4175182;28;20267;-62
2022/07/26 05:22:40;;;;;;;0.00;0.00;;;24.70;67.50;;;;;;4179297;28;20140;-62
2022/07/26 05:25:02;;;;;;;0.00;0.00;;;24.70;67.50;;;;;;4191491;28;20117;-62
2022/07/26 05:27:23;;;;;;;0.00;0.00;;;24.70;67.50;;;;;;4192266;28;20483;-68
2022/07/26 05:29:45;;;;;;;0.05;0.05;;;24.70;67.30;;;;;;4191445;28;20060;-66
2022/07/26 05:32:09;;;;;;;0.00;0.00;;;24.70;67.10;;;;;;4185217;28;20132;-67
2022/07/26 05:34:31;;;;;;;0.00;0.00;;;24.70;67.10;;;;;;4178986;28;20053;-68
2022/07/26 05:36:53;;;;;;;0.75;0.55;;;24.60;67.00;;;;;;4174580;28;20049;-69
2022/07/26 05:39:15;;;;;;;0.10;0.10;;;24.70;67.00;;;;;;4191002;28;20055;-62
2022/07/26 05:41:37;;;;;;;0.47;0.20;;;24.60;66.80;;;;;;4193954;28;20131;-62
2022/07/26 05:44:00;;;;;;;0.00;0.00;;;24.60;67.00;;;;;;4194698;28;20056;-62
2022/07/26 05:46:21;;;;;;;0.00;0.00;;;24.60;66.90;;;;;;4179252;28;20136;-62
2022/07/26 05:48:45;;;;;;;0.00;0.00;;;24.60;66.10;;;;;;4178922;28;20052;-62
2022/07/26 05:51:07;;;;;;;0.35;0.35;;;24.60;65.40;;;;;;4195056;28;20137;-62
2022/07/26 05:53:29;;;;;;;0.00;0.00;;;24.50;65.80;;;;;;4194650;28;20123;-62
2022/07/26 05:55:52;;;;;;;0.20;0.20;;;24.50;66.00;;;;;;4194589;28;20048;-61
2022/07/26 05:58:14;;;;;;;0.10;0.10;;;24.50;66.10;;;;;;4194856;28;20040;-61
2022/07/26 06:00:36;;;;;;;0.00;0.00;;;24.40;66.10;;;;;;4194299;28;20110;-61
2022/07/26 06:02:58;;;;;;;0.00;0.00;;;24.40;66.30;;;;;;4176885;28;20053;-62
2022/07/26 06:05:21;;;;;;;0.00;0.00;;;24.40;66.30;;;;;;4177631;28;20040;-62
2022/07/26 06:07:44;;;;;;;0.08;0.08;;;24.40;66.60;;;;;;4186363;28;20491;-62
2022/07/26 06:10:06;;;;;;;0.00;0.00;;;24.40;66.70;;;;;;4178070;28;20133;-62
2022/07/26 06:12:29;;;;;;;0.00;0.00;;;24.40;66.80;;;;;;4193524;28;20048;-61
2022/07/26 06:14:51;;;;;;;0.00;0.00;;;24.40;66.80;;;;;;4194172;28;20044;-62
2022/07/26 06:17:13;;;;;;;0.00;0.00;;;24.40;66.80;;;;;;4191615;28;20563;-63
2022/07/26 06:19:35;;;;;;;0.00;0.00;;;24.40;66.80;;;;;;4190614;28;20048;-62
2022/07/26 06:21:58;;;;;;;0.05;0.05;;;24.40;66.60;;;;;;4190120;28;20048;-63
2022/07/26 06:24:20;;;;;;;0.20;0.20;;;24.40;66.30;;;;;;4188297;28;20063;-62
2022/07/26 06:26:43;;;;;;;0.00;0.00;;;24.40;66.40;;;;;;4190414;28;20051;-65
2022/07/26 06:29:05;;;;;;;0.20;0.20;;;24.40;66.20;;;;;;4192229;28;20048;-62
2022/07/26 06:31:27;;;;;;;0.00;0.00;;;24.40;66.40;;;;;;4191596;28;20479;-62
2022/07/26 06:33:50;;;;;;;0.00;0.00;;;24.40;66.30;;;;;;4191795;28;20090;-62
2022/07/26 06:36:12;;;;;;;0.00;0.00;;;24.30;65.60;;;;;;4191689;28;20052;-62
2022/07/26 06:38:36;;;;;;;0.00;0.00;;;24.30;65.60;;;;;;4190276;28;20048;-62
2022/07/26 06:40:58;;;;;;;0.00;0.00;;;24.30;64.80;;;;;;4191310;28;20121;-62
2022/07/26 06:43:21;;;;;;;0.00;0.00;;;24.30;64.00;;;;;;4191442;28;20110;-62
2022/07/26 06:45:43;;;;;;;0.15;0.15;;;24.30;63.80;;;;;;4190893;28;20067;-63
2022/07/26 06:48:05;;;;;;;0.00;0.00;;;24.30;64.00;;;;;;4191708;28;20056;-63
2022/07/26 06:50:27;;;;;;;0.00;0.00;;;24.20;64.20;;;;;;4188988;28;20052;-67
2022/07/26 06:52:50;;;;;;;0.00;0.00;;;24.20;65.00;;;;;;4190922;28;20114;-68
2022/07/26 06:55:14;;;;;;;2.92;1.25;;;24.10;64.60;;;;;;4190576;28;20128;-67
2022/07/26 06:57:36;;;;;;;0.00;0.00;;;24.20;64.90;;;;;;4191272;28;20056;-68
2022/07/26 07:00:07;;;;;;;0.00;0.00;;;24.10;64.60;;;;;;4190527;28;20140;-68
2022/07/26 07:02:29;;;;;;;4.78;1.58;;;24.10;64.70;;;;;;4190963;28;20136;-65
2022/07/26 07:04:51;;;;;;;0.08;0.08;;;24.10;64.90;;;;;;4191209;28;20083;-68
2022/07/26 07:07:13;;;;;;;0.00;0.00;;;24.10;64.70;;;;;;4190941;28;20048;-67
2022/07/26 07:09:36;;;;;;;0.00;0.00;;;24.10;64.20;;;;;;4189987;28;20054;-68
2022/07/26 07:12:01;;;;;;;0.00;0.00;;;24.10;63.40;;;;;;4191246;28;20059;-68
2022/07/26 07:14:29;;;;;;;0.00;0.00;;;24.10;63.10;;;;;;4190589;28;20098;-68
2022/07/26 07:16:51;;;;;;;0.00;0.00;;;24.10;63.50;;;;;;4191091;28;20051;-68
2022/07/26 07:19:13;;;;;;;0.20;0.20;;;24.10;63.90;;;;;;4191013;28;20052;-69
2022/07/26 07:21:36;;;;;;;0.00;0.00;;;24.10;64.30;;;;;;4191044;28;20044;-62
2022/07/26 07:23:58;;;;;;;0.00;0.00;;;24.00;64.70;;;;;;4189319;28;20052;-64
2022/07/26 07:26:20;;;;;;;0.00;0.00;;;24.10;64.80;;;;;;4190751;28;20121;-64
2022/07/26 07:28:43;;;;;;;0.00;0.00;;;24.10;64.50;;;;;;4190617;28;20041;-64
2022/07/26 07:31:06;;;;;;;0.00;0.00;;;24.10;64.30;;;;;;4191019;28;20947;-63
2022/07/26 07:33:28;;;;;;;0.00;0.00;;;24.10;63.30;;;;;;4189524;28;20186;-62
2022/07/26 07:35:53;;;;;;;0.10;0.10;;;24.10;63.40;;;;;;4190923;28;20142;-64
2022/07/26 07:38:15;;;;;;;0.00;0.00;;;24.10;63.10;;;;;;4190484;28;20098;-64
2022/07/26 07:40:37;;;;;;;0.00;0.00;;;24.10;62.70;;;;;;4189196;28;20062;-68
2022/07/26 07:42:59;;;;;;;0.00;0.00;;;24.10;63.40;;;;;;4191196;28;20075;-69
2022/07/26 07:45:23;;;;;;;0.00;0.00;;;24.10;62.90;;;;;;4190071;28;20048;-69
2022/07/26 07:47:45;;;;;;;0.80;0.80;;;24.10;62.30;;;;;;4189047;28;20557;-69
2022/07/26 07:50:08;;;;;;;0.00;0.00;;;24.20;61.80;;;;;;4189334;28;20142;-69
2022/07/26 07:52:31;;;;;;;4.38;1.65;;;24.10;61.60;;;;;;4189019;28;20048;-70
2022/07/26 07:54:52;;;;;;;0.00;0.00;;;24.10;62.20;;;;;;4190738;28;20139;-69
2022/07/26 07:57:27;;;;;;;0.20;0.20;;;24.10;62.10;;;;;;4189947;28;20125;-70
2022/07/26 07:59:49;;;;;;;0.00;0.00;;;24.10;63.20;;;;;;4190545;28;20040;-69
2022/07/26 08:02:14;;;;;;;0.75;0.63;;;24.10;62.70;;;;;;4189871;28;20048;-65
2022/07/26 08:04:36;;;;;;;0.00;0.00;;;24.10;62.70;;;;;;4189497;28;20044;-68
2022/07/26 08:06:58;;;;;;;0.00;0.00;;;24.10;63.10;;;;;;4188188;28;20160;-68
2022/07/26 08:09:20;;;;;;;0.08;0.08;;;24.10;63.00;;;;;;4189264;28;20045;-70
2022/07/26 08:11:42;;;;;;;0.00;0.00;;;24.10;62.90;;;;;;4189816;28;20123;-68
2022/07/26 08:14:04;;;;;;;0.00;0.00;;;24.10;62.20;;;;;;4190435;28;20053;-70
2022/07/26 08:16:26;;;;;;;0.00;0.00;;;24.20;61.20;;;;;;4188405;28;20048;-69
2022/07/26 08:18:49;;;;;;;0.00;0.00;;;24.20;60.60;;;;;;4190226;28;20056;-69
2022/07/26 08:21:18;;;;;;;0.00;0.00;;;24.10;60.30;;;;;;4189560;28;20471;-69
2022/07/26 08:23:40;;;;;;;0.00;0.00;;;24.10;60.10;;;;;;4189818;28;20554;-69
2022/07/26 08:26:02;;;;;;;0.00;0.00;;;24.10;60.10;;;;;;4188874;28;20060;-68
2022/07/26 08:28:28;;;;;;;0.00;0.00;;;24.10;60.20;;;;;;4190346;28;20054;-69
2022/07/26 08:31:10;;;;;;;0.30;0.22;;;24.10;60.00;;;;;;4188579;28;20127;-68
2022/07/26 08:33:32;;;;;;;0.00;0.00;;;24.10;60.00;;;;;;4187752;28;20128;-69
2022/07/26 08:35:55;;;;;;;0.00;0.00;;;24.10;59.80;;;;;;4187956;28;20059;-69
2022/07/26 08:38:19;;;;;;;0.10;0.10;;;24.10;60.60;;;;;;4189417;28;20105;-69
2022/07/26 08:40:42;;;;;;;0.00;0.00;;;24.10;60.70;;;;;;4189826;28;20298;-69
2022/07/26 08:43:04;;;;;;;0.00;0.00;;;24.10;60.30;;;;;;4189314;28;20542;-69
2022/07/26 08:45:27;;;;;;;0.00;0.00;;;24.10;60.00;;;;;;4189745;28;20048;-70
2022/07/26 08:47:50;;;;;;;0.40;0.40;;;24.20;60.80;;;;;;4187665;28;20063;-68
2022/07/26 08:50:33;;;;;;;0.00;0.00;;;24.20;60.80;;;;;;4188109;28;20487;-70
2022/07/26 08:53:02;;;;;;;0.00;0.00;;;24.20;60.00;;;;;;4187341;28;20048;-68
2022/07/26 08:55:24;;;;;;;0.00;0.00;;;24.30;60.70;;;;;;4189542;28;20106;-68
2022/07/26 08:57:47;;;;;;;0.10;0.10;;;24.30;60.40;;;;;;4189539;28;20060;-69
2022/07/26 09:00:18;;;;;;;0.00;0.00;;;24.30;59.60;;;;;;4187000;28;20126;-68
2022/07/26 09:02:41;;;;;;;;;;;24.30;59.40;;;;;;4189389;28;20063;-65
2022/07/26 09:05:04;;;;;;;0.00;0.00;;;24.30;58.70;;;;;;4189877;28;19920;-68
2022/07/26 09:07:27;;;;;;;0.00;0.00;;;24.20;58.60;;;;;;4188279;28;20056;-69
2022/07/26 09:10:02;;;;;;;0.08;0.08;;;24.20;58.70;;;;;;4189668;28;20055;-68
2022/07/26 09:12:25;;;;;;;0.00;0.00;;;24.20;58.60;;;;;;4188115;28;20427;-68
2022/07/26 09:14:48;;;;;;;0.00;0.00;;;24.20;59.10;;;;;;4188669;28;20080;-69
2022/07/26 09:17:10;;;;;;;0.20;0.20;;;24.10;59.60;;;;;;4188817;28;20044;-69
2022/07/26 09:19:33;;;;;;;0.00;0.00;;;24.20;59.30;;;;;;4188792;28;20055;-68
2022/07/26 09:21:56;;;;;;;0.15;0.15;;;24.20;59.50;;;;;;4187728;28;20057;-69
2022/07/26 09:24:31;;;;;;;0.00;0.00;;;24.20;59.60;;;;;;4188703;28;20052;-67
2022/07/26 09:26:58;;;;;;;0.65;0.57;;;24.10;59.30;;;;;;4187964;28;20045;-69
2022/07/26 09:29:20;;;;;;;0.00;0.00;;;24.10;59.80;;;;;;4172871;28;20045;-70
2022/07/26 09:31:43;;;;;;;0.00;0.00;;;24.10;60.20;;;;;;4187846;28;20052;-69
2022/07/26 09:34:06;;;;;;;0.00;0.00;;;24.10;60.40;;;;;;4189178;28;20055;-69
2022/07/26 09:36:29;;;;;;;0.00;0.00;;;24.10;59.80;;;;;;4188890;28;20488;-70
2022/07/26 09:38:53;;;;;;;0.65;0.65;;;24.10;60.20;;;;;;4186445;28;20056;-69
2022/07/26 09:41:20;;;;;;;0.00;0.00;;;24.10;59.00;;;;;;4189389;28;20055;-70
2022/07/26 09:43:43;;;;;;;0.10;0.10;;;24.10;59.20;;;;;;4188912;28;20140;-69
2022/07/26 09:46:09;;;;;;;0.00;0.00;;;24.10;59.40;;;;;;4189234;28;20402;-70
2022/07/26 09:48:31;;;;;;;0.00;0.00;;;24.10;59.60;;;;;;4188604;28;20118;-68
2022/07/26 09:51:13;;;;;;;0.00;0.00;;;24.10;58.90;;;;;;4187915;28;20975;-70
2022/07/26 09:53:40;;;;;;;0.20;0.20;;;24.10;58.90;;;;;;4187810;28;20048;-68
2022/07/26 09:56:02;;;;;;;0.10;0.10;;;24.10;59.00;;;;;;4188927;28;20060;-69
2022/07/26 09:58:26;;;;;;;0.00;0.00;;;24.10;59.10;;;;;;4188368;28;20068;-67
2022/07/26 10:00:50;;;;;;;0.35;0.35;;;24.10;58.60;;;;;;4188521;28;20144;-69
2022/07/26 10:03:12;;;;;;;0.65;0.65;;;24.10;58.20;;;;;;4187262;28;20055;-68
2022/07/26 10:05:35;;;;;;;0.00;0.00;;;24.10;58.10;;;;;;4175569;28;20103;-69
2022/07/26 10:07:59;;;;;;;0.00;0.00;;;24.10;58.20;;;;;;4172425;28;20041;-68
2022/07/26 10:10:26;;;;;;;0.00;0.00;;;24.10;57.90;;;;;;4188012;28;20056;-69
2022/07/26 10:12:51;;;;;;;0.20;0.20;;;24.10;58.00;;;;;;4186826;28;20830;-68
2022/07/26 10:15:35;;;;;;;3.30;1.15;;;24.10;57.60;;;;;;4187031;28;20478;-63
2022/07/26 10:17:59;;;;;;;0.00;0.00;;;24.10;57.70;;;;;;4188898;28;20060;-63
2022/07/26 10:20:42;;;;;;;0.00;0.00;;;24.10;57.90;;;;;;4188791;28;20071;-62
2022/07/26 10:23:05;;;;;;;0.10;0.10;;;24.10;57.90;;;;;;4188386;28;20399;-62
2022/07/26 10:25:47;;;;;;;0.00;0.00;;;24.10;57.80;;;;;;4188526;28;20153;-63
2022/07/26 10:28:23;;;;;;;0.00;0.00;;;24.10;57.20;;;;;;4174375;28;20142;-62
2022/07/26 10:30:45;;;;;;;0.10;0.10;;;24.10;56.70;;;;;;4190404;28;20045;-62
2022/07/26 10:33:16;;;;;;;0.00;0.00;;;24.10;56.80;;;;;;4190133;28;20171;-62
2022/07/26 10:35:42;;;;;;;0.00;0.00;;;24.10;57.00;;;;;;4191518;28;20055;-62
2022/07/26 10:38:06;;;;;;;0.00;0.00;;;24.00;57.20;;;;;;4191160;28;20056;-62
2022/07/26 10:40:29;;;;;;;0.00;0.00;;;24.00;57.90;;;;;;4190392;28;20113;-62
2022/07/26 10:42:51;;;;;;;0.10;0.10;;;24.00;57.10;;;;;;4191345;28;20059;-62
2022/07/26 10:45:20;;;;;;;0.10;0.10;;;24.10;57.50;;;;;;4191907;28;20151;-62
2022/07/26 10:48:15;;;;;;;0.00;0.00;;;24.10;57.20;;;;;;4191688;28;20090;-62
2022/07/26 10:50:38;;;;;;;0.00;0.00;;;24.10;56.50;;;;;;4172072;28;20057;-63
2022/07/26 10:53:01;;;;;;;0.17;0.17;;;24.10;57.00;;;;;;4189752;28;20550;-63
2022/07/26 10:55:23;;;;;;;0.00;0.00;;;24.20;57.10;;;;;;4191764;28;20044;-63
2022/07/26 10:57:47;;;;;;;0.00;0.00;;;24.20;57.10;;;;;;4191656;28;20539;-63
2022/07/26 11:00:19;;;;;;;0.00;0.00;;;24.20;56.70;;;;;;4175514;28;20084;-62
2022/07/26 11:02:42;;;;;;;0.00;0.00;;;24.20;56.60;;;;;;4191591;28;20515;-63
2022/07/26 11:05:12;;;;;;;0.73;0.73;;;24.30;56.80;;;;;;4190302;28;20063;-62
2022/07/26 11:07:52;;;;;;;0.00;0.00;;;24.30;56.20;;;;;;4189419;28;20051;-61
2022/07/26 11:10:14;;;;;;;0.80;0.80;;;24.30;55.10;;;;;;4188007;28;20114;-64
2022/07/26 11:12:36;;;;;;;15.32;1.60;;;24.30;55.90;;;;;;4191124;28;20825;-65
2022/07/26 11:14:58;;;;;;;0.00;0.00;;;24.30;56.50;;;;;;4189331;28;20960;-64
2022/07/26 11:17:24;;;;;;;0.35;0.35;;;24.30;56.70;;;;;;4190971;28;20044;-64
2022/07/26 11:19:47;;;;;;;0.25;0.25;;;24.40;55.40;;;;;;4187863;28;20533;-64
2022/07/26 11:22:10;;;;;;;0.00;0.00;;;24.40;55.50;;;;;;4190908;28;20106;-64
2022/07/26 11:24:39;;;;;;;0.90;0.65;;;24.40;55.90;;;;;;4190684;28;20105;-63
2022/07/26 11:27:03;;;;;;;0.00;0.00;;;24.40;56.10;;;;;;4190374;28;20459;-62
2022/07/26 11:29:27;;;;;;;0.88;0.88;;;24.50;56.10;;;;;;4190104;28;20072;-63
2022/07/26 11:32:01;;;;;;;0.00;0.00;;;24.50;56.50;;;;;;4190355;28;20053;-62
2022/07/26 11:34:31;;;;;;;0.00;0.00;;;24.50;56.60;;;;;;4190259;28;20483;-62
2022/07/26 11:36:56;;;;;;;0.00;0.00;;;24.50;57.10;;;;;;4190813;28;20053;-63
2022/07/26 11:39:23;;;;;;;0.25;0.25;;;24.50;57.80;;;;;;4189849;28;20494;-63
2022/07/26 11:41:45;;;;;;;0.10;0.10;;;24.60;57.70;;;;;;4190911;28;20067;-62
2022/07/26 11:44:14;;;;;;;0.00;0.00;;;24.50;58.10;;;;;;4188344;28;20461;-62
2022/07/26 11:46:39;;;;;;;0.05;0.05;;;24.60;57.70;;;;;;4190558;28;20123;-60
2022/07/26 11:49:01;;;;;;;1.35;1.25;;;24.60;57.50;;;;;;4189858;28;20383;-62
2022/07/26 11:51:24;;;;;;;0.00;0.00;;;24.70;57.40;;;;;;4190709;28;20055;-62
2022/07/26 11:53:47;;;;;;;0.00;0.00;;;24.60;57.60;;;;;;4190644;28;20052;-61
2022/07/26 11:56:15;;;;;;;0.00;0.00;;;24.70;57.10;;;;;;4190555;28;20517;-63
2022/07/26 11:58:40;;;;;;;0.22;0.22;;;24.70;56.70;;;;;;4189858;28;20055;-61
2022/07/26 12:01:02;;;;;;;0.00;0.00;;;24.70;56.70;;;;;;4188765;28;20102;-64
2022/07/26 12:03:24;;;;;;;0.00;0.00;;;24.70;55.10;;;;;;4188460;28;20056;-63
2022/07/26 12:06:02;;;;;;;0.30;0.30;;;24.70;56.30;;;;;;4189869;28;20048;-64
2022/07/26 12:08:24;;;;;;;0.00;0.00;;;24.70;56.10;;;;;;4189850;28;20045;-63
2022/07/26 12:10:53;;;;;;;0.00;0.00;;;24.70;55.90;;;;;;4189851;28;20052;-63
2022/07/26 12:13:17;;;;;;;0.00;0.00;;;24.70;56.10;;;;;;4189322;28;20827;-61
2022/07/26 12:15:47;;;;;;;0.20;0.20;;;24.70;56.10;;;;;;4190204;28;21095;-62
2022/07/26 12:18:09;;;;;;;3.38;2.05;;;24.80;56.20;;;;;;4188823;28;20048;-62
2022/07/26 12:20:31;;;;;;;0.00;0.00;;;24.80;56.20;;;;;;4190715;28;20144;-64
2022/07/26 12:22:55;;;;;;;0.00;0.00;;;24.70;55.10;;;;;;4175539;28;20079;-63
2022/07/26 12:25:24;;;;;;;1.40;0.70;;;24.70;55.70;;;;;;4175310;28;20135;-62
2022/07/26 12:27:47;;;;;;;0.20;0.20;;;24.80;56.00;;;;;;4172989;28;20059;-63
2022/07/26 12:30:16;;;;;;;0.00;0.00;;;24.80;56.70;;;;;;4176200;28;20053;-62
2022/07/26 12:32:40;;;;;;;0.00;0.00;;;24.80;55.70;;;;;;4192168;28;20123;-63
2022/07/26 12:35:04;;;;;;;0.10;0.10;;;24.80;55.20;;;;;;4191621;28;20050;-63